Tiempo atmosférico en la estación meteorológica de Irurtzun, Navarra (455 m.)



Fecha
DESCASC
Temp. máxima en grados centígrados (hora)
DESCASC
Temp. mínima en grados centígrados (hora)
DESCASC
Temp. media en grados centígrados
DESCASC
Racha de viento máxima en m/sg (hora)
DESCASC
Velocidad máxima media en intervalos de 10 minutos(hora)
DESCASC
Precipitaciones diarias en mm
DESCASC
Precipitaciones de 00:00 a 06:00 en mm
DESCASC
Precipitaciones de 06:00 a 12:00 en mm
DESCASC
Precipitaciones de 12:00 a 18:00 en mm
DESCASC
Precipitaciones de 18:00 a 24:00 en mm
DESCASC
29-10-2020 20 (16:00) 5.5 (07:30) 12.8 4.17 (12:40) 2.22 (15:20) 0 0 0 0 0
28-10-2020 17.5 (16:10) 6.6 (23:59) 12 7.5 (18:30) 4.17 (18:10) 0.2 0 0 0.2 0
27-10-2020 14.7 (14:30) 5.2 (00:00) 9.9 4.72 (15:10) 2.5 (11:30) 0.4 0 0.2 0 0.2
26-10-2020 11.4 (14:00) 5.6 (00:00) 8.5 6.94 (15:10) 3.89 (15:10) 2.2 0 1.4 0.8 0
25-10-2020 15.9 (14:20) 8.2 (00:00) 12 11.94 (13:10) 5.28 (11:40) 11.6 0 0 8.4 3.2
24-10-2020 18 (16:30) 7.9 (00:00) 13 8.89 (22:30) 5 (22:30) 0.2 0.2 0 0 0
23-10-2020 18 (15:40) 8.1 (00:00) 13.1 8.06 (18:50) 4.44 (18:50) 5.6 4 0.2 0 1.4
22-10-2020 19.8 (16:10) 9.8 (00:00) 14.8 11.11 (11:40) 4.72 (19:20) 1.2 0 0.2 0 1
21-10-2020 21.2 (14:50) 10.9 (00:00) 16.1 21.39 (03:30) 8.06 (03:30) 5.2 4.2 0 1 0
20-10-2020 19.4 (23:00) 15 (00:00) 17.2 23.06 (22:30) 8.06 (23:00) 10.4 0 1.4 8.8 0.2
19-10-2020 21.9 (16:10) 5.6 (00:00) 13.7 15.83 (20:50) 6.39 (21:20) 0 0 0 0 0
18-10-2020 20 (16:00) 3.1 (00:00) 11.5 3.61 (16:50) 1.94 (17:20) 0 0 0 0 0
17-10-2020 17.3 (17:00) 3.1 (00:00) 10.2 3.89 (09:30) 2.5 (14:10) 0 0 0 0 0
16-10-2020 12.7 (15:10) 5.4 (00:00) 9 6.94 (16:10) 2.78 (16:00) 0.4 0.4 0 0 0
15-10-2020 9.5 (12:50) 6.4 (00:00) 8 7.5 (17:40) 3.61 (15:40) 6.4 2.4 3.8 0 0.2
14-10-2020 9.7 (00:00) 7.3 (00:00) 8.5 8.89 (20:40) 3.33 (20:30) 32.2 3.4 9.4 16 3.4
13-10-2020 13.4 (14:00) 9.7 (00:00) 11.5 8.89 (11:50) 3.61 (12:50) 13.2 5 4.6 2.4 1.2
12-10-2020 13.4 (16:50) 9.1 (00:00) 11.3 8.06 (16:30) 3.33 (03:30) 8.6 4.4 3.2 0.2 0.8
11-10-2020 12.5 (13:30) 8.5 (00:00) 10.5 9.72 (13:40) 4.17 (12:50) 7.8 0 1.4 1.8 4.6
10-10-2020 14.8 (00:00) 10.3 (00:00) 12.6 7.22 (11:30) 3.61 (11:30) 2.2 0 1.2 1 0
09-10-2020 18.4 (14:30) 10.5 (00:00) 14.4 6.67 (18:30) 2.78 (14:00) 0 0 0 0 0
08-10-2020 23.3 (17:00) 9.2 (00:00) 16.2 6.39 (15:50) 3.33 (13:40) 0 0 0 0 0
07-10-2020 17.7 (16:00) 13.9 (00:00) 15.8 6.39 (16:10) 3.61 (16:20) 1.4 0.2 1.2 0 0
06-10-2020 16.4 (17:00) 8.5 (00:00) 12.4 3.61 (04:40) 1.67 (10:40) 0.2 0 0 0.2 0
05-10-2020 19 (17:00) 7.9 (00:00) 13.5 6.67 (16:00) 2.78 (15:30) 1.2 0 1.2 0 0
04-10-2020 15.6 (16:00) 5 (00:00) 10.3 9.17 (17:10) 4.44 (15:30) 4.8 0 4.2 0.6 0
03-10-2020 14.3 (16:40) 6.2 (00:00) 10.3 7.5 (17:00) 3.06 (17:00) 19.6 2.8 15.4 1 0.4
02-10-2020 16 (00:50) 7.9 (00:00) 12 10 (19:20) 3.89 (15:30) 21.6 6.2 14.4 0 1
01-10-2020 17.9 (17:00) 10 (00:00) 13.9 5.83 (22:40) 2.78 (10:50) 0.4 0 0.2 0.2 0

Gráficas

Temp. máximas Temp. mínimas Temp. medias Precipitaciones Rachas de viento máximas Velocidades máximas media en intervalos de 10 minutos

Datos horarios

Fecha y hora oficial Temperatura (ºC) Velocidad del viento (km/h) Dirección del viento Racha (km/h) Dirección de racha Precipitación (mm) Presión (hPa) Tendencia (hPa) Humedad (%)
2020-10-30 23:00:00 7.2 2 Noroeste 5 Oeste 0 -- -- 95
2020-10-30 22:00:00 7.9 0 Calma 5 Oeste 0 -- -- 93
2020-10-30 21:00:00 9 0 Calma 4 Nordeste 0 -- -- 91
2020-10-30 20:00:00 10.4 0 Calma 5 Norte 0 -- -- 87
2020-10-30 19:00:00 12.6 0 Calma 6 Norte 0 -- -- 80
2020-10-30 18:00:00 15.7 3 Noroeste 13 Este 0 -- -- 71
2020-10-30 17:00:00 19.8 7 Este 19 Este 0 -- -- 55
2020-10-30 16:00:00 20.7 8 Este 19 Este 0 -- -- 54
2020-10-30 15:00:00 20.4 9 Este 18 Sudeste 0 -- -- 56
2020-10-30 14:00:00 19.4 9 Este 23 Este 0 -- -- 61
2020-10-30 13:00:00 17.4 12 Este 23 Este 0 -- -- 67
2020-10-30 12:00:00 15.3 12 Este 24 Este 0 -- -- 71
2020-10-30 11:00:00 13.9 8 Sudeste 21 Sudeste 0 -- -- 77
2020-10-30 10:00:00 10.5 3 Noroeste 13 Sudeste 0 -- -- 96
2020-10-30 09:00:00 6.4 4 Norte 9 Norte 0 -- -- 98
2020-10-30 08:00:00 4.9 3 Norte 7 Norte 0 -- -- 98
2020-10-30 07:00:00 5 2 Noroeste 5 Norte 0 -- -- 97
2020-10-30 06:00:00 5.2 2 Noroeste 8 Norte 0 -- -- 97
2020-10-30 05:00:00 5.9 4 Norte 13 Norte 0 -- -- 97
2020-10-30 04:00:00 6.5 4 Norte 11 Norte 0 -- -- 96
2020-10-30 03:00:00 7 3 Norte 8 Norte 0 -- -- 95
2020-10-30 02:00:00 7.7 5 Norte 11 Norte 0 -- -- 95
2020-10-30 01:00:00 7.8 6 Norte 11 Norte 0 -- -- 96
2020-10-30 00:00:00 7.4 3 Oeste 10 Norte 0 -- -- 96
2020-10-29 23:00:00 7.6 0 Calma 3 Norte 0 -- -- 94
2020-10-29 22:00:00 8.5 0 Calma 4 Norte 0 -- -- 93
2020-10-29 21:00:00 9.7 0 Calma 7 Norte 0 -- -- 91
2020-10-29 20:00:00 11.1 2 Norte 5 Nordeste 0 -- -- 89
2020-10-29 19:00:00 12.6 3 Norte 6 Norte 0 -- -- 84
2020-10-29 18:00:00 15.2 3 Noroeste 12 Este 0 -- -- 75
2020-10-29 17:00:00 19.4 5 Este 13 Este 0 -- -- 58
2020-10-29 16:00:00 20 5 Este 13 Este 0 -- -- 57
2020-10-29 15:00:00 19.8 7 Sudeste 15 Este 0 -- -- 58
2020-10-29 14:00:00 18.7 6 Este 14 Nordeste 0 -- -- 62
2020-10-29 13:00:00 17.5 6 Este 15 Sur 0 -- -- 65
2020-10-29 12:00:00 15.4 3 Sudeste 8 Sur 0 -- -- 75
2020-10-29 11:00:00 11.1 0 Calma 5 Oeste 0 -- -- 94
2020-10-29 10:00:00 8.1 3 Sur 5 Sur 0 -- -- 97
2020-10-29 09:00:00 6.2 0 Calma 4 Sudoeste 0 -- -- 97
2020-10-29 08:00:00 5.6 0 Calma 4 Nordeste 0 -- -- 97
2020-10-29 07:00:00 6.1 0 Calma 4 Norte 0 -- -- 96
2020-10-29 06:00:00 7.3 0 Calma 3 Oeste 0 -- -- 96
2020-10-29 05:00:00 7.8 0 Calma 4 Sudoeste 0 -- -- 97
2020-10-29 04:00:00 7.4 0 Calma 3 Norte 0 -- -- 97
2020-10-29 03:00:00 7.2 0 Calma 4 Sudoeste 0 -- -- 97
2020-10-29 02:00:00 6.9 0 Calma 3 Sur 0 -- -- 97
2020-10-29 01:00:00 6.3 0 Calma 7 Norte 0 -- -- 96
2020-10-29 00:00:00 6.6 0 Calma 2 Nordeste 0 -- -- 95
2020-10-28 23:00:00 7.7 0 Calma 3 Sudeste 0 -- -- 93
2020-10-28 22:00:00 8.9 0 Calma 4 Norte 0 -- -- 90
2020-10-28 21:00:00 10.5 0 Calma 9 Noroeste 0 -- -- 86
2020-10-28 20:00:00 13.1 3 Noroeste 19 Oeste 0 -- -- 76
2020-10-28 19:00:00 13.4 10 Norte 27 Norte 0 -- -- 79
2020-10-28 18:00:00 14.1 13 Noroeste 25 Noroeste 0 -- -- 79
2020-10-28 17:00:00 15.9 7 Noroeste 15 Noroeste 0 -- -- 73
2020-10-28 16:00:00 17.2 3 Sudoeste 7 Sur 0 -- -- 78
2020-10-28 15:00:00 15.5 6 Sudeste 10 Sur 0 -- -- 84
2020-10-28 14:00:00 15 3 Este 13 Este 0.2 -- -- 87
2020-10-28 13:00:00 12.8 8 Este 17 Este 0 -- -- 90
2020-10-28 12:00:00 13 10 Este 19 Este 0 -- -- 81
2020-10-28 11:00:00 12.6 9 Este 18 Este 0 -- -- 81
2020-10-28 10:00:00 11.9 4 Este 10 Este 0 -- -- 84
2020-10-28 09:00:00 10.7 0 Calma 3 Norte 0 -- -- 91
2020-10-28 08:00:00 10.4 0 Calma 4 Norte 0 -- -- 90
2020-10-28 07:00:00 10.6 0 Calma 5 Sur 0 -- -- 86
2020-10-28 06:00:00 11.4 0 Calma 12 Sudeste 0 -- -- 84
2020-10-28 05:00:00 11.5 2 Este 12 Este 0 -- -- 83
2020-10-28 04:00:00 11.2 0 Calma 7 Sudeste 0 -- -- 86
2020-10-28 03:00:00 11.4 3 Este 13 Sudeste 0 -- -- 82
2020-10-28 02:00:00 11.3 2 Nordeste 13 Nordeste 0 -- -- 83
2020-10-28 01:00:00 11.1 6 Nordeste 15 Este 0 -- -- 81
2020-10-28 00:00:00 10.2 2 Este 8 Sudeste 0 -- -- 92
2020-10-27 23:00:00 11.6 3 Este 6 Sudeste 0 -- -- 91
2020-10-27 22:00:00 11.3 0 Calma 8 Sur 0 -- -- 92
2020-10-27 21:00:00 11.5 0 Calma 5 Sudeste 0.2 -- -- 91
2020-10-27 20:00:00 11.6 0 Calma 4 Noroeste 0 -- -- 89
2020-10-27 19:00:00 12 0 Calma 5 Sudeste 0 -- -- 87
2020-10-27 18:00:00 12.6 2 Sudeste 13 Sur 0 -- -- 82
2020-10-27 17:00:00 13.8 2 Sur 12 Este 0 -- -- 76
2020-10-27 16:00:00 14 5 Sudeste 17 Nordeste 0 -- -- 70
2020-10-27 15:00:00 14.4 4 Sudeste 15 Sur 0 -- -- 70
2020-10-27 14:00:00 13.1 7 Sudeste 13 Sudeste 0 -- -- 76
2020-10-27 13:00:00 11.8 6 Sudeste 12 Sur 0 -- -- 77
2020-10-27 12:00:00 11.1 6 Sudeste 15 Este 0 -- -- 81
2020-10-27 11:00:00 9.4 5 Este 12 Este 0 -- -- 98
2020-10-27 10:00:00 7.2 0 Calma 4 Norte 0.2 -- -- 100
2020-10-27 09:00:00 5.6 0 Calma 2 Sudoeste 0 -- -- 99
2020-10-27 08:00:00 5.2 0 Calma 3 Noroeste 0 -- -- 99
2020-10-27 07:00:00 5.2 0 Calma 4 Sudoeste 0 -- -- 99
2020-10-27 06:00:00 5.4 0 Calma 5 Oeste 0 -- -- 99
2020-10-27 05:00:00 5.6 0 Calma 3 Oeste 0 -- -- 99
2020-10-27 04:00:00 5.8 0 Calma 2 Sudoeste 0 -- -- 98
2020-10-27 03:00:00 5.8 0 Calma 3 Sudoeste 0 -- -- 98
2020-10-27 02:00:00 5.9 0 Calma 4 Sur 0 -- -- 98
2020-10-27 01:00:00 6 0 Calma 2 Noroeste 0 -- -- 98
2020-10-27 00:00:00 5.6 0 Calma 0 Calma 0 -- -- 97
2020-10-26 23:00:00 6 0 Calma 2 Noroeste 0 -- -- 97
2020-10-26 22:00:00 6.6 0 Calma 2 Sur 0 -- -- 96
2020-10-26 21:00:00 6.7 0 Calma 4 Nordeste 0 -- -- 95
2020-10-26 20:00:00 6.7 0 Calma 5 Oeste 0 -- -- 93
2020-10-26 19:00:00 8.8 2 Sudeste 13 Norte 0 -- -- 88
2020-10-26 18:00:00 9 4 Norte 25 Noroeste 0 -- -- 87
2020-10-26 17:00:00 10.4 7 Noroeste 14 Oeste 0 -- -- 84
2020-10-26 16:00:00 10.1 5 Norte 25 Norte 0.6 -- -- 82
2020-10-26 15:00:00 10.2 8 Noroeste 24 Oeste 0.2 -- -- 83
2020-10-26 14:00:00 11.4 4 Noroeste 11 Oeste 0 -- -- 77
2020-10-26 13:00:00 10.3 4 Norte 9 Norte 0 -- -- 84
2020-10-26 12:00:00 9.3 4 Noroeste 15 Oeste 0.6 -- -- 85
2020-10-26 11:00:00 9.2 5 Noroeste 14 Oeste 0 -- -- 82
2020-10-26 10:00:00 8 0 Calma 5 Noroeste 0.2 -- -- 91
2020-10-26 09:00:00 7.4 3 Norte 15 Norte 0.4 -- -- 93
2020-10-26 08:00:00 6.4 2 Norte 4 Noroeste 0 -- -- 97
2020-10-26 07:00:00 6 0 Calma 4 Norte 0.2 -- -- 97
2020-10-26 06:00:00 5.9 0 Calma 5 Sudeste 0 -- -- 97
2020-10-26 05:00:00 5.9 0 Calma 4 Nordeste 0 -- -- 96
2020-10-26 04:00:00 6 0 Calma 4 Este 0 -- -- 95
2020-10-26 03:00:00 7.1 0 Calma 5 Sudoeste 0 -- -- 93
2020-10-26 02:00:00 8 0 Calma 10 Noroeste 0 -- -- 88
2020-10-26 01:00:00 8.6 5 Noroeste 14 Oeste 0 -- -- 88
2020-10-26 00:00:00 8.2 2 Norte 8 Norte 0 -- -- 93
2020-10-25 23:00:00 8.9 0 Calma 11 Noroeste 0 -- -- 89
2020-10-25 22:00:00 9.2 3 Oeste 22 Oeste 0.2 -- -- 87
2020-10-25 21:00:00 9.3 6 Noroeste 14 Noroeste 1 -- -- 91
2020-10-25 20:00:00 9.9 4 Noroeste 15 Oeste 0.6 -- -- 89
2020-10-25 19:00:00 10.2 5 Noroeste 20 Norte 1.4 -- -- 89
2020-10-25 18:00:00 11.4 9 Norte 28 Nordeste 6.2 -- -- 85
2020-10-25 17:00:00 13.1 0 Calma 16 Sur 1.2 -- -- 89
2020-10-25 16:00:00 13.7 5 Sudeste 25 Sur 1 -- -- 84
2020-10-25 15:00:00 15.6 18 Sur 35 Sur 0 -- -- 71
2020-10-25 14:00:00 15.7 10 Sudeste 43 Este 0 -- -- 66
2020-10-25 13:00:00 15.2 15 Sudeste 31 Sur 0 -- -- 68
2020-10-25 12:00:00 15.5 17 Sur 31 Sudeste 0 -- -- 65
2020-10-25 11:00:00 13.8 14 Sudeste 28 Sudeste 0 -- -- 71
2020-10-25 10:00:00 13 9 Sudeste 25 Sudeste 0 -- -- 73
2020-10-25 09:00:00 12.7 14 Sudeste 30 Sudeste 0 -- -- 73
2020-10-25 08:00:00 12.8 13 Sudeste 27 Sudeste 0 -- -- 71
2020-10-25 07:00:00 12.5 6 Sudeste 27 Sudeste 0 -- -- 73
2020-10-25 06:00:00 12.1 6 Sur 19 Sudeste 0 -- -- 75
2020-10-25 05:00:00 13 8 Sudeste 20 Sudeste 0 -- -- 72
2020-10-25 04:00:00 13.1 8 Sudeste 25 Sudeste 0 -- -- 72
2020-10-25 03:00:00 12.5 10 Sudeste 33 Sudeste 0 -- -- 75
2020-10-25 02:00:00 12.4 12 Sur 24 Sudeste 0 -- -- 74
2020-10-25 01:00:00 13 10 Sur 26 Sudeste 0 -- -- 71
2020-10-25 00:00:00 13.3 13 Sudeste 27 Sudeste 0 -- -- 70
2020-10-24 23:00:00 13.7 14 Sudeste 32 Sudeste 0 -- -- 68
2020-10-24 22:00:00 14.3 18 Sudeste 27 Sudeste 0 -- -- 66
2020-10-24 21:00:00 14.3 5 Sur 22 Sur 0 -- -- 65
2020-10-24 20:00:00 14.5 8 Sur 23 Sudoeste 0 -- -- 65
2020-10-24 19:00:00 15.6 11 Sur 24 Sudoeste 0 -- -- 60
2020-10-24 18:00:00 16.4 8 Sur 28 Sudeste 0 -- -- 59
2020-10-24 17:00:00 18 7 Sudeste 24 Este 0 -- -- 56
2020-10-24 16:00:00 17.9 9 Sudeste 24 Este 0 -- -- 56
2020-10-24 15:00:00 17.2 11 Sudeste 28 Sudeste 0 -- -- 57
2020-10-24 14:00:00 16.5 9 Sudeste 24 Sudeste 0 -- -- 65
2020-10-24 13:00:00 13.7 9 Sudeste 17 Sudeste 0 -- -- 78
2020-10-24 12:00:00 11.4 2 Oeste 21 Este 0 -- -- 88
2020-10-24 11:00:00 9.4 4 Este 15 Este 0 -- -- 98
2020-10-24 10:00:00 8.4 3 Sudeste 9 Este 0 -- -- 99
2020-10-24 09:00:00 8.1 3 Este 10 Sudeste 0 -- -- 99
2020-10-24 08:00:00 8.3 3 Nordeste 8 Este 0 -- -- 99
2020-10-24 07:00:00 8.3 0 Calma 3 Oeste 0 -- -- 99
2020-10-24 06:00:00 8.1 0 Calma 3 Oeste 0 -- -- 99
2020-10-24 05:00:00 8.1 0 Calma 3 Oeste 0.2 -- -- 99
2020-10-24 04:00:00 8.2 0 Calma 2 Noroeste 0 -- -- 98
2020-10-24 03:00:00 8.2 0 Calma 4 Oeste 0 -- -- 98
2020-10-24 02:00:00 8.1 0 Calma 4 Sudoeste 0 -- -- 98
2020-10-24 01:00:00 8 0 Calma 3 Sur 0 -- -- 97
2020-10-24 00:00:00 8.1 0 Calma 2 Norte 0 -- -- 96
2020-10-23 23:00:00 8.8 0 Calma 4 Este 0 -- -- 95
2020-10-23 22:00:00 10.2 0 Calma 5 Sudoeste 0 -- -- 94
2020-10-23 21:00:00 11.4 0 Calma 5 Oeste 0 -- -- 93
2020-10-23 20:00:00 12.1 2 Noroeste 17 Noroeste 0.4 -- -- 89
2020-10-23 19:00:00 12.9 13 Noroeste 29 Noroeste 1 -- -- 84
2020-10-23 18:00:00 16.7 4 Noroeste 18 Oeste 0 -- -- 62
2020-10-23 17:00:00 16.8 6 Oeste 23 Sudoeste 0 -- -- 60
2020-10-23 16:00:00 17.9 11 Oeste 25 Oeste 0 -- -- 55
2020-10-23 15:00:00 16.5 6 Oeste 25 Sudoeste 0 -- -- 61
2020-10-23 14:00:00 15.7 8 Sudoeste 19 Oeste 0 -- -- 64
2020-10-23 13:00:00 14.9 6 Oeste 23 Oeste 0 -- -- 68
2020-10-23 12:00:00 14 2 Oeste 13 Oeste 0 -- -- 76
2020-10-23 11:00:00 13.2 4 Noroeste 14 Noroeste 0 -- -- 90
2020-10-23 10:00:00 11.6 0 Calma 3 Sur 0 -- -- 98
2020-10-23 09:00:00 11 0 Calma 4 Norte 0 -- -- 97
2020-10-23 08:00:00 11.5 0 Calma 4 Noroeste 0 -- -- 97
2020-10-23 07:00:00 12 0 Calma 4 Norte 0.2 -- -- 96
2020-10-23 06:00:00 12.2 0 Calma 4 Oeste 0 -- -- 96
2020-10-23 05:00:00 12.4 0 Calma 6 Este 0 -- -- 94
2020-10-23 04:00:00 13.4 2 Sudeste 6 Sudeste 0 -- -- 91
2020-10-23 03:00:00 14.1 0 Calma 12 Sudeste 2.8 -- -- 93
2020-10-23 02:00:00 15.1 3 Nordeste 17 Sudeste 1.2 -- -- 88
2020-10-23 01:00:00 16 6 Sudeste 21 Sudeste 0 -- -- 82
2020-10-23 00:00:00 16 5 Sur 24 Sudoeste 0 -- -- 82
2020-10-22 23:00:00 16.2 9 Sur 25 Sudeste 0 -- -- 81
2020-10-22 22:00:00 16.8 11 Sudeste 30 Sudeste 0 -- -- 76
2020-10-22 21:00:00 16.7 10 Sudeste 35 Sudeste 0 -- -- 78
2020-10-22 20:00:00 17.6 12 Sudeste 33 Sudeste 1 -- -- 78
2020-10-22 19:00:00 19 14 Sudeste 31 Este 0 -- -- 67
2020-10-22 18:00:00 19.2 10 Este 35 Nordeste 0 -- -- 66
2020-10-22 17:00:00 19.4 13 Este 40 Sudeste 0 -- -- 69
2020-10-22 16:00:00 19.7 12 Sudeste 31 Sudeste 0 -- -- 66
2020-10-22 15:00:00 19.4 9 Sudeste 38 Sur 0 -- -- 68
2020-10-22 14:00:00 19.3 12 Sudeste 30 Sudeste 0 -- -- 69
2020-10-22 13:00:00 18.5 8 Sur 29 Sudeste 0 -- -- 72
2020-10-22 12:00:00 18.1 5 Sudeste 40 Este 0 -- -- 74
2020-10-22 11:00:00 17.2 6 Este 31 Este 0 -- -- 74
2020-10-22 10:00:00 17 8 Sudeste 28 Sudeste 0 -- -- 74
2020-10-22 09:00:00 16.6 5 Este 29 Este 0.2 -- -- 74
2020-10-22 08:00:00 16.2 6 Este 28 Este 0 -- -- 74
2020-10-22 07:00:00 15.7 6 Sudeste 21 Sudeste 0 -- -- 75
2020-10-22 06:00:00 12.1 3 Sudeste 12 Sudeste 0 -- -- 91
2020-10-22 05:00:00 10.8 2 Sudoeste 12 Sur 0 -- -- 93
2020-10-22 04:00:00 11.5 2 Noroeste 9 Sur 0 -- -- 88
2020-10-22 03:00:00 12.5 2 Sudeste 21 Sudeste 0 -- -- 91
2020-10-22 02:00:00 10 2 Sur 8 Sur 0 -- -- 95
2020-10-22 01:00:00 10.8 2 Sudoeste 11 Sudeste 0 -- -- 93
2020-10-22 00:00:00 10.9 0 Calma 5 Oeste 0 -- -- 93
2020-10-21 23:00:00 12 2 Oeste 14 Sur 0 -- -- 91
2020-10-21 22:00:00 12.8 4 Sudeste 13 Este 0 -- -- 89
2020-10-21 21:00:00 15.1 4 Sudeste 19 Nordeste 0 -- -- 80
2020-10-21 20:00:00 15.9 4 Este 22 Este 0 -- -- 77
2020-10-21 19:00:00 15.5 5 Este 24 Este 0 -- -- 84
2020-10-21 18:00:00 16.8 9 Este 38 Sudeste 1 -- -- 78
2020-10-21 17:00:00 19.6 9 Sur 46 Sudeste 0 -- -- 61
2020-10-21 16:00:00 20.9 12 Sur 49 Sur 0 -- -- 55
2020-10-21 15:00:00 21.1 17 Sur 46 Sudeste 0 -- -- 54
2020-10-21 14:00:00 20.8 14 Sudeste 47 Sur 0 -- -- 54
2020-10-21 13:00:00 20.1 12 Sur 52 Sudoeste 0 -- -- 56
2020-10-21 12:00:00 19.5 17 Sur 37 Sudeste 0 -- -- 57
2020-10-21 11:00:00 18.6 7 Este 34 Sudeste 0 -- -- 63
2020-10-21 10:00:00 17.6 10 Sudeste 35 Sudeste 0 -- -- 68
2020-10-21 09:00:00 17.4 12 Sudeste 33 Sudeste 0 -- -- 67
2020-10-21 08:00:00 17.4 6 Nordeste 46 Sudeste 0 -- -- 67
2020-10-21 07:00:00 18 13 Sudeste 48 Noroeste 0 -- -- 66
2020-10-21 06:00:00 17.5 15 Sudeste 60 Sudeste 0 -- -- 70
2020-10-21 05:00:00 17.3 19 Sudeste 53 Este 0.2 -- -- 72
2020-10-21 04:00:00 16.7 23 Sudeste 77 Sudeste 3.4 -- -- 77
2020-10-21 03:00:00 18.7 25 Sudeste 58 Sudeste 0.6 -- -- 62
2020-10-21 02:00:00 19.1 17 Sudeste 63 Sur 0 -- -- 60
2020-10-21 01:00:00 19.1 17 Sudeste 69 Sudeste 0 -- -- 62
2020-10-21 00:00:00 19.3 27 Sudeste 72 Sudeste 0 -- -- 59
2020-10-20 23:00:00 19.4 29 Sudeste 83 Este 0 -- -- 58
2020-10-20 22:00:00 18.2 24 Este 57 Este 0 -- -- 62
2020-10-20 21:00:00 18.7 22 Este 60 Este 0 -- -- 62
2020-10-20 20:00:00 18.6 12 Este 58 Este 0 -- -- 63
2020-10-20 19:00:00 18.1 19 Este 76 Este 0.2 -- -- 68
2020-10-20 18:00:00 17.7 21 Sudeste 56 Sudeste 0 -- -- 72
2020-10-20 17:00:00 17 12 Este 53 Sudeste 0 -- -- 75
2020-10-20 16:00:00 15.9 22 Sudeste 48 Este 1.2 -- -- 81
2020-10-20 15:00:00 15.2 12 Sudeste 46 Este 3.6 -- -- 85
2020-10-20 14:00:00 15.2 18 Sudeste 50 Este 3 -- -- 85
2020-10-20 13:00:00 15.5 17 Sudeste 46 Sudeste 1 -- -- 83
2020-10-20 12:00:00 16 17 Sudeste 37 Este 0 -- -- 80
2020-10-20 11:00:00 16.1 15 Sudeste 31 Sudeste 0 -- -- 77
2020-10-20 10:00:00 15.8 21 Sudeste 62 Sudeste 0.4 -- -- 78
2020-10-20 09:00:00 15.6 25 Sudeste 50 Sudeste 1 -- -- 79
2020-10-20 08:00:00 17 12 Sudeste 37 Este 0 -- -- 67
2020-10-20 07:00:00 16.3 13 Sudeste 48 Sudeste 0 -- -- 71
2020-10-20 06:00:00 17 13 Sur 48 Sudeste 0 -- -- 64
2020-10-20 05:00:00 17.6 18 Sudeste 53 Sudeste 0 -- -- 60
2020-10-20 04:00:00 17.8 21 Sudeste 45 Sur 0 -- -- 58
2020-10-20 03:00:00 17.7 9 Este 44 Este 0 -- -- 58
2020-10-20 02:00:00 17.8 14 Sudeste 53 Sur 0 -- -- 58
2020-10-20 01:00:00 17.7 8 Sudeste 61 Sur 0 -- -- 57
2020-10-20 00:00:00 18.8 17 Sudeste 45 Sudeste 0 -- -- 53
2020-10-19 23:00:00 18.9 19 Sur 41 Sudeste 0 -- -- 54
2020-10-19 22:00:00 18.6 13 Sudeste 48 Sudoeste 0 -- -- 52
2020-10-19 21:00:00 19.5 22 Sur 57 Sudeste 0 -- -- 49
2020-10-19 20:00:00 18.6 5 Sudeste 29 Sudeste 0 -- -- 51
2020-10-19 19:00:00 19.7 13 Sudeste 36 Este 0 -- -- 49
2020-10-19 18:00:00 21.1 16 Sudeste 36 Sudeste 0 -- -- 47
2020-10-19 17:00:00 21.6 18 Sur 36 Sur 0 -- -- 46
2020-10-19 16:00:00 21.8 18 Sudeste 49 Sudeste 0 -- -- 48
2020-10-19 15:00:00 20.2 19 Sudeste 39 Sudeste 0 -- -- 51
2020-10-19 14:00:00 19.6 14 Sudeste 44 Sur 0 -- -- 51
2020-10-19 13:00:00 18.4 20 Sudeste 48 Sur 0 -- -- 56
2020-10-19 12:00:00 16.3 17 Sudeste 33 Sudeste 0 -- -- 58
2020-10-19 11:00:00 13.3 9 Nordeste 21 Este 0 -- -- 62
2020-10-19 10:00:00 10.8 9 Este 23 Nordeste 0 -- -- 70
2020-10-19 09:00:00 9.4 8 Este 23 Este 0 -- -- 75
2020-10-19 08:00:00 9.2 10 Este 18 Nordeste 0 -- -- 77
2020-10-19 07:00:00 9 8 Este 17 Nordeste 0 -- -- 80
2020-10-19 06:00:00 6.1 3 Este 9 Norte 0 -- -- 94
2020-10-19 05:00:00 5.8 4 Norte 10 Norte 0 -- -- 93
2020-10-19 04:00:00 6.3 4 Norte 11 Norte 0 -- -- 93
2020-10-19 03:00:00 6.6 5 Norte 12 Norte 0 -- -- 93
2020-10-19 02:00:00 6.9 3 Norte 12 Nordeste 0 -- -- 94
2020-10-19 01:00:00 7.5 3 Norte 10 Norte 0 -- -- 93
2020-10-19 00:00:00 8.2 5 Norte 12 Norte 0 -- -- 95
2020-10-18 23:00:00 7.6 0 Calma 3 Nordeste 0 -- -- 94
2020-10-18 22:00:00 8.7 0 Calma 6 Nordeste 0 -- -- 91
2020-10-18 21:00:00 10.1 0 Calma 8 Norte 0 -- -- 87
2020-10-18 20:00:00 11.9 2 Norte 6 Norte 0 -- -- 82
2020-10-18 19:00:00 14.5 4 Norte 9 Norte 0 -- -- 73
2020-10-18 18:00:00 19.1 2 Sudeste 13 Este 0 -- -- 55
2020-10-18 17:00:00 19.7 6 Este 13 Este 0 -- -- 51
2020-10-18 16:00:00 20 6 Este 13 Sudeste 0 -- -- 45
2020-10-18 15:00:00 18.8 5 Sudeste 10 Sudeste 0 -- -- 58
2020-10-18 14:00:00 15.8 3 Sudoeste 7 Sudeste 0 -- -- 70
2020-10-18 13:00:00 12.3 0 Calma 5 Oeste 0 -- -- 78
2020-10-18 12:00:00 8.7 0 Calma 5 Sur 0 -- -- 97
2020-10-18 11:00:00 6.7 3 Sur 6 Sudoeste 0 -- -- 100
2020-10-18 10:00:00 3.7 0 Calma 3 Nordeste 0 -- -- 100
2020-10-18 09:00:00 3.1 0 Calma 3 Este 0 -- -- 99
2020-10-18 08:00:00 3.3 0 Calma 3 Nordeste 0 -- -- 99
2020-10-18 07:00:00 3.6 0 Calma 8 Norte 0 -- -- 99
2020-10-18 06:00:00 3.9 0 Calma 2 Sudoeste 0 -- -- 99
2020-10-18 05:00:00 4.1 0 Calma 5 Oeste 0 -- -- 99
2020-10-18 04:00:00 4.5 0 Calma 3 Sudoeste 0 -- -- 98
2020-10-18 03:00:00 4.9 0 Calma 2 Oeste 0 -- -- 97
2020-10-18 02:00:00 4.7 0 Calma 4 Noroeste 0 -- -- 97
2020-10-18 01:00:00 4.7 0 Calma 3 Norte 0 -- -- 96
2020-10-18 00:00:00 5.3 0 Calma 2 Norte 0 -- -- 95
2020-10-17 23:00:00 6.3 0 Calma 2 Norte 0 -- -- 94
2020-10-17 22:00:00 7.5 0 Calma 2 Norte 0 -- -- 93
2020-10-17 21:00:00 9.2 0 Calma 3 Nordeste 0 -- -- 90
2020-10-17 20:00:00 11.2 0 Calma 5 Norte 0 -- -- 85
2020-10-17 19:00:00 13.2 3 Norte 8 Sudeste 0 -- -- 79
2020-10-17 18:00:00 16.9 4 Sudeste 8 Sudeste 0 -- -- 60
2020-10-17 17:00:00 17.3 4 Sur 11 Sudeste 0 -- -- 59
2020-10-17 16:00:00 16.5 5 Sudeste 12 Sudeste 0 -- -- 58
2020-10-17 15:00:00 15.3 6 Sudeste 14 Sudeste 0 -- -- 64
2020-10-17 14:00:00 13.9 8 Sudeste 13 Sudeste 0 -- -- 68
2020-10-17 13:00:00 11.5 3 Sur 9 Sudeste 0 -- -- 73
2020-10-17 12:00:00 9 3 Sur 9 Sur 0 -- -- 83
2020-10-17 11:00:00 6.3 0 Calma 8 Este 0 -- -- 93
2020-10-17 10:00:00 4.9 5 Este 14 Sudeste 0 -- -- 98
2020-10-17 09:00:00 3.9 3 Sudeste 6 Sudeste 0 -- -- 99
2020-10-17 08:00:00 3.3 0 Calma 3 Sur 0 -- -- 98
2020-10-17 07:00:00 3.3 0 Calma 5 Este 0 -- -- 98
2020-10-17 06:00:00 3.3 0 Calma 3 Este 0 -- -- 98
2020-10-17 05:00:00 3.5 0 Calma 3 Este 0 -- -- 97
2020-10-17 04:00:00 3.6 0 Calma 3 Este 0 -- -- 97
2020-10-17 03:00:00 3.4 0 Calma 4 Nordeste 0 -- -- 96
2020-10-17 02:00:00 3.7 0 Calma 2 Noroeste 0 -- -- 95
2020-10-17 01:00:00 4.6 0 Calma 3 Norte 0 -- -- 94
2020-10-17 00:00:00 5.9 0 Calma 5 Noroeste 0 -- -- 92
2020-10-16 23:00:00 7.1 0 Calma 5 Oeste 0 -- -- 88
2020-10-16 22:00:00 8.2 0 Calma 8 Noroeste 0 -- -- 83
2020-10-16 21:00:00 9.2 0 Calma 10 Noroeste 0 -- -- 76
2020-10-16 20:00:00 9.5 5 Oeste 17 Oeste 0 -- -- 76
2020-10-16 19:00:00 10.2 8 Noroeste 17 Sudoeste 0 -- -- 72
2020-10-16 18:00:00 11 7 Noroeste 20 Oeste 0 -- -- 70
2020-10-16 17:00:00 11.2 9 Noroeste 25 Oeste 0 -- -- 66
2020-10-16 16:00:00 11.7 10 Noroeste 18 Oeste 0 -- -- 68
2020-10-16 15:00:00 12.1 6 Noroeste 21 Oeste 0 -- -- 65
2020-10-16 14:00:00 11.4 4 Noroeste 20 Nordeste 0 -- -- 70
2020-10-16 13:00:00 11.2 6 Noroeste 22 Oeste 0 -- -- 68
2020-10-16 12:00:00 10.9 7 Oeste 17 Oeste 0 -- -- 72
2020-10-16 11:00:00 10.1 6 Noroeste 19 Oeste 0 -- -- 76
2020-10-16 10:00:00 7.8 4 Noroeste 13 Oeste 0 -- -- 91
2020-10-16 09:00:00 6.6 2 Norte 18 Oeste 0 -- -- 92
2020-10-16 08:00:00 5.4 2 Norte 8 Nordeste 0 -- -- 95
2020-10-16 07:00:00 6.4 3 Nordeste 10 Noroeste 0 -- -- 92
2020-10-16 06:00:00 7.3 3 Noroeste 10 Noroeste 0 -- -- 92
2020-10-16 05:00:00 7.4 0 Calma 12 Noroeste 0.4 -- -- 92
2020-10-16 04:00:00 7.5 3 Norte 12 Oeste 0 -- -- 90
2020-10-16 03:00:00 7.6 5 Oeste 14 Oeste 0 -- -- 90
2020-10-16 02:00:00 7.2 6 Oeste 13 Noroeste 0 -- -- 91
2020-10-16 01:00:00 6.9 4 Oeste 15 Oeste 0 -- -- 90
2020-10-16 00:00:00 7.2 5 Noroeste 17 Noroeste 0.2 -- -- 90
2020-10-15 23:00:00 7 4 Oeste 10 Oeste 0 -- -- 88
2020-10-15 22:00:00 7.1 3 Noroeste 15 Noroeste 0 -- -- 86
2020-10-15 21:00:00 7.3 7 Oeste 22 Noroeste 0 -- -- 84
2020-10-15 20:00:00 7.6 6 Noroeste 17 Oeste 0 -- -- 82
2020-10-15 19:00:00 8 6 Noroeste 18 Norte 0 -- -- 79
2020-10-15 18:00:00 8.8 8 Noroeste 27 Noroeste 0 -- -- 76
2020-10-15 17:00:00 8.9 8 Oeste 23 Oeste 0 -- -- 79
2020-10-15 16:00:00 8.9 9 Oeste 26 Oeste 0 -- -- 79
2020-10-15 15:00:00 9 8 Oeste 17 Oeste 0 -- -- 83
2020-10-15 14:00:00 8.9 8 Oeste 21 Oeste 0 -- -- 81
2020-10-15 13:00:00 9.2 10 Oeste 23 Sudoeste 0 -- -- 81
2020-10-15 12:00:00 8.3 8 Oeste 23 Noroeste 0 -- -- 85
2020-10-15 11:00:00 7.7 2 Noroeste 13 Noroeste 0.2 -- -- 90
2020-10-15 10:00:00 7.2 4 Norte 17 Noroeste 1.2 -- -- 88
2020-10-15 09:00:00 7.4 4 Oeste 15 Oeste 2 -- -- 93
2020-10-15 08:00:00 7.3 6 Oeste 13 Oeste 0 -- -- 93
2020-10-15 07:00:00 7.3 6 Oeste 13 Oeste 0.4 -- -- 93
2020-10-15 06:00:00 7.8 5 Oeste 16 Oeste 1.8 -- -- 92
2020-10-15 05:00:00 8 8 Oeste 17 Oeste 0.2 -- -- 91
2020-10-15 04:00:00 8.3 6 Noroeste 15 Noroeste 0.2 -- -- 89
2020-10-15 03:00:00 8.2 4 Oeste 13 Oeste 0 -- -- 91
2020-10-15 02:00:00 8 3 Oeste 15 Oeste 0.2 -- -- 91
2020-10-15 01:00:00 7.9 4 Noroeste 16 Oeste 0 -- -- 90
2020-10-15 00:00:00 8.4 6 Oeste 26 Oeste 0 -- -- 86
2020-10-14 23:00:00 8.6 6 Oeste 23 Noroeste 0 -- -- 86
2020-10-14 22:00:00 8.3 6 Noroeste 18 Oeste 0 -- -- 88
2020-10-14 21:00:00 7.3 4 Noroeste 32 Noroeste 3.4 -- -- 89
2020-10-14 20:00:00 8.9 8 Noroeste 21 Noroeste 0 -- -- 85
2020-10-14 19:00:00 9.6 8 Noroeste 19 Norte 0 -- -- 83
2020-10-14 18:00:00 9.5 3 Noroeste 18 Nordeste 0.4 -- -- 88
2020-10-14 17:00:00 9.1 4 Noroeste 19 Oeste 0.8 -- -- 90
2020-10-14 16:00:00 9.4 5 Oeste 14 Oeste 1 -- -- 90
2020-10-14 15:00:00 9 5 Noroeste 21 Oeste 3.6 -- -- 89
2020-10-14 14:00:00 8.5 4 Norte 19 Noroeste 3.8 -- -- 92
2020-10-14 13:00:00 8.3 6 Noroeste 20 Noroeste 6.4 -- -- 88
2020-10-14 12:00:00 9.2 7 Noroeste 16 Noroeste 1.4 -- -- 89
2020-10-14 11:00:00 7.3 10 Noroeste 29 Noroeste 4 -- -- 89
2020-10-14 10:00:00 8.6 4 Noroeste 18 Noroeste 1.6 -- -- 91
2020-10-14 09:00:00 8.4 5 Noroeste 11 Oeste 0.6 -- -- 93
2020-10-14 08:00:00 8.5 5 Noroeste 15 Oeste 1.2 -- -- 92
2020-10-14 07:00:00 8.8 4 Noroeste 14 Noroeste 0.6 -- -- 91
2020-10-14 06:00:00 8.8 5 Noroeste 12 Noroeste 1.2 -- -- 94
2020-10-14 05:00:00 9 3 Norte 14 Noroeste 2 -- -- 94
2020-10-14 04:00:00 9.3 4 Noroeste 12 Noroeste 0 -- -- 93
2020-10-14 03:00:00 9.4 2 Noroeste 10 Oeste 0 -- -- 92
2020-10-14 02:00:00 9.5 5 Noroeste 13 Noroeste 0.2 -- -- 91
2020-10-14 01:00:00 9.6 3 Noroeste 9 Oeste 0 -- -- 93
2020-10-14 00:00:00 9.7 3 Noroeste 14 Noroeste 0.4 -- -- 93
2020-10-13 23:00:00 10.3 5 Noroeste 13 Norte 0.2 -- -- 89
2020-10-13 22:00:00 10.1 2 Noroeste 10 Noroeste 0.4 -- -- 93
2020-10-13 21:00:00 10.8 5 Noroeste 17 Oeste 0 -- -- 87
2020-10-13 20:00:00 11.2 4 Noroeste 20 Norte 0.2 -- -- 86
2020-10-13 19:00:00 11.6 2 Oeste 19 Noroeste 0 -- -- 89
2020-10-13 18:00:00 11.5 4 Norte 20 Noroeste 0.8 -- -- 91
2020-10-13 17:00:00 11.7 5 Noroeste 23 Noroeste 0.8 -- -- 89
2020-10-13 16:00:00 13 12 Noroeste 28 Noroeste 0.4 -- -- 80
2020-10-13 15:00:00 12.2 9 Noroeste 23 Oeste 0.4 -- -- 85
2020-10-13 14:00:00 13.4 9 Noroeste 27 Oeste 0 -- -- 80
2020-10-13 13:00:00 12.8 13 Noroeste 30 Oeste 0 -- -- 80
2020-10-13 12:00:00 11.9 10 Noroeste 32 Noroeste 0.8 -- -- 87
2020-10-13 11:00:00 -- -- -- -- -- -- -- -- --
2020-10-13 10:00:00 -- -- -- -- -- -- -- -- --
2020-10-13 09:00:00 12.4 12 Noroeste 26 Noroeste 0.4 -- -- 87
2020-10-13 08:00:00 12.4 8 Noroeste 30 Oeste 0.4 -- -- 90
2020-10-13 07:00:00 12.1 5 Noroeste 15 Norte 1 -- -- 95
2020-10-13 06:00:00 12.1 6 Norte 9 Norte 0.6 -- -- 95
2020-10-13 05:00:00 12.2 5 Noroeste 21 Oeste 1 -- -- 96
2020-10-13 04:00:00 9.9 0 Calma 5 Sudeste 1 -- -- 98
2020-10-13 03:00:00 9.7 0 Calma 4 Noroeste 0.2 -- -- 98
2020-10-13 02:00:00 9.8 0 Calma 5 Sudeste 0.4 -- -- 97
2020-10-13 01:00:00 -- -- -- -- -- -- -- -- --
2020-10-13 00:00:00 10 0 Calma 3 Sur 0.2 -- -- 95
2020-10-12 23:00:00 10.2 0 Calma 2 Este 0.6 -- -- 94
2020-10-12 22:00:00 10.3 0 Calma 3 Oeste 0 -- -- 93
2020-10-12 21:00:00 10.5 0 Calma 2 Sudoeste 0 -- -- 91
2020-10-12 20:00:00 11.2 0 Calma 15 Norte 0 -- -- 84
2020-10-12 19:00:00 11.7 5 Norte 16 Oeste 0 -- -- 81
2020-10-12 18:00:00 -- -- -- -- -- -- -- -- --
2020-10-12 17:00:00 13.2 8 Noroeste 29 Oeste 0 -- -- 79
2020-10-12 16:00:00 12 5 Oeste 15 Oeste 0 -- -- 86
2020-10-12 15:00:00 11 8 Noroeste 19 Oeste 0.2 -- -- 87
2020-10-12 14:00:00 11.7 6 Oeste 16 Oeste 0 -- -- 87
2020-10-12 13:00:00 12.1 5 Oeste 15 Oeste 0 -- -- 85
2020-10-12 12:00:00 11.9 5 Noroeste 13 Oeste 0 -- -- 84
2020-10-12 11:00:00 10.2 0 Calma 6 Norte 0.2 -- -- 94
2020-10-12 10:00:00 9.7 4 Norte 12 Norte 0.4 -- -- 93
2020-10-12 09:00:00 9.4 4 Noroeste 12 Noroeste 1 -- -- 94
2020-10-12 08:00:00 9.5 4 Noroeste 22 Sudoeste 1 -- -- 93
2020-10-12 07:00:00 9.5 7 Oeste 18 Noroeste 0.6 -- -- 92
2020-10-12 06:00:00 9.5 5 Oeste 17 Noroeste 0.8 -- -- 92
2020-10-12 05:00:00 9.3 5 Oeste 15 Oeste 1 -- -- 92
2020-10-12 04:00:00 -- -- -- -- -- -- -- -- --
2020-10-12 03:00:00 9.6 6 Noroeste 26 Oeste 0.4 -- -- 88
2020-10-12 02:00:00 9.3 6 Noroeste 17 Oeste 0.8 -- -- 91
2020-10-12 01:00:00 9.4 5 Noroeste 15 Oeste 0.6 -- -- 91
2020-10-12 00:00:00 9.7 7 Noroeste 24 Noroeste 1 -- -- 89
2020-10-11 23:00:00 9.7 8 Noroeste 21 Noroeste 0.4 -- -- 89
2020-10-11 22:00:00 9.7 6 Noroeste 19 Noroeste 0.8 -- -- 90
2020-10-11 21:00:00 -- -- -- -- -- -- -- -- --
2020-10-11 20:00:00 -- -- -- -- -- -- -- -- --
2020-10-11 19:00:00 10.1 5 Noroeste 22 Oeste 0.2 -- -- 87
2020-10-11 18:00:00 10.5 5 Noroeste 27 Noroeste 0.2 -- -- 87
2020-10-11 17:00:00 11.4 6 Noroeste 31 Oeste 0.2 -- -- 85
2020-10-11 16:00:00 10.7 8 Noroeste 31 Oeste 1 -- -- 88
2020-10-11 15:00:00 11.6 9 Noroeste 32 Oeste 0 -- -- 86
2020-10-11 14:00:00 11.2 8 Noroeste 35 Oeste 0.4 -- -- 84
2020-10-11 13:00:00 11.3 8 Noroeste 34 Oeste 0 -- -- 83
2020-10-11 12:00:00 11.1 11 Oeste 26 Noroeste 0.4 -- -- 81
2020-10-11 11:00:00 10.5 11 Oeste 26 Oeste 0 -- -- 84
2020-10-11 10:00:00 8.8 6 Noroeste 22 Oeste 0.2 -- -- 89
2020-10-11 09:00:00 8.7 6 Noroeste 21 Sudoeste 0.2 -- -- 89
2020-10-11 08:00:00 8.5 6 Noroeste 26 Oeste 0.4 -- -- 89
2020-10-11 07:00:00 8.8 6 Noroeste 21 Oeste 0.2 -- -- 88
2020-10-11 06:00:00 9.2 8 Oeste 21 Oeste 0 -- -- 83
2020-10-11 05:00:00 9.2 8 Oeste 22 Oeste 0 -- -- 82
2020-10-11 04:00:00 9.4 12 Oeste 27 Oeste 0 -- -- 80
2020-10-11 03:00:00 10 8 Noroeste 25 Oeste 0 -- -- 81
2020-10-11 02:00:00 10 5 Noroeste 21 Oeste 0 -- -- 86
2020-10-11 01:00:00 10.4 8 Noroeste 17 Noroeste 0 -- -- 85
2020-10-11 00:00:00 10.8 6 Noroeste 18 Oeste 0 -- -- 87
2020-10-10 23:00:00 11.1 6 Oeste 15 Oeste 0 -- -- 89
2020-10-10 22:00:00 11.2 3 Noroeste 17 Norte 0 -- -- 85
2020-10-10 21:00:00 10.5 2 Oeste 8 Oeste 0 -- -- 91
2020-10-10 20:00:00 11.5 5 Norte 16 Oeste 0 -- -- 84
2020-10-10 19:00:00 12.2 5 Noroeste 14 Oeste 0 -- -- 84
2020-10-10 18:00:00 11.8 5 Oeste 12 Oeste 0.6 -- -- 90
2020-10-10 17:00:00 12.6 9 Noroeste 22 Oeste 0 -- -- 86
2020-10-10 16:00:00 13.7 10 Oeste 23 Oeste 0 -- -- 81
2020-10-10 15:00:00 13.9 9 Oeste 23 Norte 0.2 -- -- 83
2020-10-10 14:00:00 11.8 9 Norte 26 Noroeste 0.2 -- -- 90
2020-10-10 13:00:00 12.9 5 Norte 17 Noroeste 0 -- -- 87
2020-10-10 12:00:00 13.7 4 Oeste 26 Oeste 0.2 -- -- 90
2020-10-10 11:00:00 13.8 8 Oeste 23 Oeste 0.4 -- -- 94
2020-10-10 10:00:00 13.6 3 Noroeste 9 Noroeste 0 -- -- 95
2020-10-10 09:00:00 12.9 0 Calma 4 Norte 0.6 -- -- 95
2020-10-10 08:00:00 12.9 2 Norte 14 Oeste 0 -- -- 90
2020-10-10 07:00:00 13.3 5 Oeste 14 Oeste 0 -- -- 89
2020-10-10 06:00:00 13 5 Oeste 13 Oeste 0 -- -- 91
2020-10-10 05:00:00 13.8 6 Oeste 14 Oeste 0 -- -- 89
2020-10-10 04:00:00 13.9 4 Noroeste 12 Oeste 0 -- -- 88
2020-10-10 03:00:00 14.4 4 Oeste 11 Oeste 0 -- -- 85
2020-10-10 02:00:00 14.7 5 Noroeste 18 Oeste 0 -- -- 82
2020-10-10 01:00:00 14.7 7 Noroeste 16 Noroeste 0 -- -- 82
2020-10-10 00:00:00 14.8 8 Noroeste 18 Oeste 0 -- -- 82
2020-10-09 23:00:00 15.3 4 Noroeste 12 Noroeste 0 -- -- 85
2020-10-09 22:00:00 15.3 5 Oeste 22 Oeste 0 -- -- 88
2020-10-09 21:00:00 16 8 Noroeste 18 Noroeste 0 -- -- 85
2020-10-09 20:00:00 16.3 6 Noroeste 15 Noroeste 0 -- -- 85
2020-10-09 19:00:00 17 9 Norte 24 Noroeste 0 -- -- 81
2020-10-09 18:00:00 17.3 9 Noroeste 16 Noroeste 0 -- -- 82
2020-10-09 17:00:00 17.5 6 Noroeste 16 Oeste 0 -- -- 81
2020-10-09 16:00:00 17.7 4 Norte 17 Oeste 0 -- -- 82
2020-10-09 15:00:00 18.1 9 Oeste 22 Noroeste 0 -- -- 80
2020-10-09 14:00:00 18.3 10 Oeste 21 Oeste 0 -- -- 80
2020-10-09 13:00:00 16.8 6 Oeste 16 Oeste 0 -- -- 88
2020-10-09 12:00:00 15 5 Oeste 12 Oeste 0 -- -- 98
2020-10-09 11:00:00 13.3 2 Noroeste 5 Noroeste 0 -- -- 100
2020-10-09 10:00:00 12.1 0 Calma 4 Oeste 0 -- -- 99
2020-10-09 09:00:00 11.7 0 Calma 2 Noroeste 0 -- -- 99
2020-10-09 08:00:00 11.4 0 Calma 4 Oeste 0 -- -- 99
2020-10-09 07:00:00 11.2 0 Calma 3 Nordeste 0 -- -- 99
2020-10-09 06:00:00 11.1 0 Calma 3 Oeste 0 -- -- 98
2020-10-09 05:00:00 11.1 0 Calma 4 Nordeste 0 -- -- 98
2020-10-09 04:00:00 11.2 0 Calma 3 Norte 0 -- -- 97
2020-10-09 03:00:00 11 0 Calma 2 Norte 0 -- -- 97
2020-10-09 02:00:00 10.6 0 Calma 2 Sur 0 -- -- 96
2020-10-09 01:00:00 11.2 0 Calma 2 Sudeste 0 -- -- 95
2020-10-09 00:00:00 12.1 0 Calma 2 Sur 0 -- -- 94
2020-10-08 23:00:00 13.1 0 Calma 2 Sudeste 0 -- -- 93
2020-10-08 22:00:00 14.1 0 Calma 6 Norte 0 -- -- 91
2020-10-08 21:00:00 16 2 Noroeste 8 Norte 0 -- -- 86
2020-10-08 20:00:00 17.8 3 Norte 9 Norte 0 -- -- 79
2020-10-08 19:00:00 19.9 4 Norte 11 Este 0 -- -- 73
2020-10-08 18:00:00 22.3 5 Este 16 Este 0 -- -- 59
2020-10-08 17:00:00 23.3 8 Este 17 Nordeste 0 -- -- 56
2020-10-08 16:00:00 23 6 Este 23 Este 0 -- -- 56
2020-10-08 15:00:00 21.7 11 Este 22 Este 0 -- -- 59
2020-10-08 14:00:00 20.2 12 Este 21 Este 0 -- -- 64
2020-10-08 13:00:00 19.4 8 Este 19 Este 0 -- -- 66
2020-10-08 12:00:00 17.2 11 Este 23 Este 0 -- -- 73
2020-10-08 11:00:00 14.5 8 Este 15 Este 0 -- -- 90
2020-10-08 10:00:00 10.2 0 Calma 8 Nordeste 0 -- -- 99
2020-10-08 09:00:00 9.5 3 Nordeste 8 Nordeste 0 -- -- 98
2020-10-08 08:00:00 9.5 0 Calma 3 Oeste 0 -- -- 98
2020-10-08 07:00:00 9.2 0 Calma 0 Calma 0 -- -- 97
2020-10-08 06:00:00 9.6 0 Calma 0 Calma 0 -- -- 95
2020-10-08 05:00:00 10.7 0 Calma 3 Oeste 0 -- -- 95
2020-10-08 04:00:00 12.5 0 Calma 4 Norte 0 -- -- 93
2020-10-08 03:00:00 13.9 0 Calma 5 Norte 0 -- -- 92
2020-10-08 02:00:00 14.4 0 Calma 9 Norte 0 -- -- 91
2020-10-08 01:00:00 14.6 0 Calma 5 Norte 0 -- -- 92
2020-10-08 00:00:00 14.8 0 Calma 6 Norte 0 -- -- 91
2020-10-07 23:00:00 14.9 3 Norte 6 Norte 0 -- -- 90
2020-10-07 22:00:00 15.2 4 Noroeste 13 Noroeste 0 -- -- 88
2020-10-07 21:00:00 15.4 4 Noroeste 8 Oeste 0 -- -- 88
2020-10-07 20:00:00 15.6 3 Noroeste 9 Norte 0 -- -- 88
2020-10-07 19:00:00 15.8 2 Noroeste 10 Noroeste 0 -- -- 89
2020-10-07 18:00:00 16.4 4 Norte 18 Noroeste 0 -- -- 85
2020-10-07 17:00:00 16.9 10 Noroeste 23 Noroeste 0 -- -- 84
2020-10-07 16:00:00 17.7 6 Norte 20 Oeste 0 -- -- 85
2020-10-07 15:00:00 17.2 4 Noroeste 17 Norte 0 -- -- 87
2020-10-07 14:00:00 16.7 8 Noroeste 19 Norte 0 -- -- 85
2020-10-07 13:00:00 16.5 6 Noroeste 14 Noroeste 0 -- -- 89
2020-10-07 12:00:00 16.1 5 Norte 12 Noroeste 0.4 -- -- 92
2020-10-07 11:00:00 15.8 4 Oeste 12 Noroeste 0.2 -- -- 92
2020-10-07 10:00:00 15.8 7 Noroeste 16 Noroeste 0.2 -- -- 95
2020-10-07 09:00:00 15.6 5 Noroeste 12 Noroeste 0.2 -- -- 97
2020-10-07 08:00:00 14.6 2 Oeste 7 Oeste 0.2 -- -- 98
2020-10-07 07:00:00 14.4 3 Norte 8 Nordeste 0 -- -- 98
2020-10-07 06:00:00 14.2 2 Norte 4 Nordeste 0.2 -- -- 98
2020-10-07 05:00:00 14 0 Calma 3 Nordeste 0 -- -- 97
2020-10-07 04:00:00 14 0 Calma 6 Norte 0 -- -- 97
2020-10-07 03:00:00 14 2 Norte 5 Norte 0 -- -- 97
2020-10-07 02:00:00 14 0 Calma 4 Norte 0 -- -- 97
2020-10-07 01:00:00 14.7 0 Calma 5 Norte 0 -- -- 97
2020-10-07 00:00:00 14.6 2 Nordeste 5 Este 0 -- -- 96
2020-10-06 23:00:00 14.5 0 Calma 4 Norte 0 -- -- 96
2020-10-06 22:00:00 14.5 0 Calma 4 Nordeste 0 -- -- 96
2020-10-06 21:00:00 14.6 0 Calma 5 Norte 0 -- -- 95
2020-10-06 20:00:00 15.4 0 Calma 5 Sur 0 -- -- 91
2020-10-06 19:00:00 16.3 2 Nordeste 6 Noroeste 0 -- -- 88
2020-10-06 18:00:00 16.3 0 Calma 6 Norte 0.2 -- -- 88
2020-10-06 17:00:00 16.4 2 Norte 8 Este 0 -- -- 84
2020-10-06 16:00:00 15.6 2 Nordeste 10 Norte 0 -- -- 87
2020-10-06 15:00:00 15.5 4 Nordeste 13 Norte 0 -- -- 82
2020-10-06 14:00:00 15.9 3 Nordeste 9 Sur 0 -- -- 75
2020-10-06 13:00:00 14.4 3 Norte 7 Sur 0 -- -- 79
2020-10-06 12:00:00 14.2 0 Calma 9 Este 0 -- -- 77
2020-10-06 11:00:00 13.2 0 Calma 11 Este 0 -- -- 79
2020-10-06 10:00:00 12.2 0 Calma 8 Sudeste 0 -- -- 83
2020-10-06 09:00:00 11.4 0 Calma 3 Sur 0 -- -- 88
2020-10-06 08:00:00 11.2 0 Calma 4 Norte 0 -- -- 89
2020-10-06 07:00:00 11.3 0 Calma 6 Norte 0 -- -- 87
2020-10-06 06:00:00 10.8 3 Noroeste 12 Este 0 -- -- 90
2020-10-06 05:00:00 11 3 Nordeste 13 Este 0 -- -- 86
2020-10-06 04:00:00 10.4 3 Norte 8 Norte 0 -- -- 91
2020-10-06 03:00:00 10.1 3 Norte 9 Nordeste 0 -- -- 91
2020-10-06 02:00:00 9.9 4 Norte 9 Nordeste 0 -- -- 92
2020-10-06 01:00:00 9.5 5 Norte 10 Norte 0 -- -- 94
2020-10-06 00:00:00 8.6 0 Calma 7 Norte 0 -- -- 94
2020-10-05 23:00:00 9.1 0 Calma 5 Nordeste 0 -- -- 92
2020-10-05 22:00:00 10 0 Calma 4 Sur 0 -- -- 90
2020-10-05 21:00:00 11.7 0 Calma 6 Nordeste 0 -- -- 83
2020-10-05 20:00:00 13.9 0 Calma 13 Norte 0 -- -- 75
2020-10-05 19:00:00 16.3 5 Norte 15 Norte 0 -- -- 62
2020-10-05 18:00:00 18.6 5 Sudoeste 16 Sudoeste 0 -- -- 52
2020-10-05 17:00:00 19 6 Sur 21 Oeste 0 -- -- 51
2020-10-05 16:00:00 17.9 8 Sudoeste 24 Sudoeste 0 -- -- 58
2020-10-05 15:00:00 17 7 Oeste 21 Oeste 0 -- -- 63
2020-10-05 14:00:00 15.3 9 Oeste 17 Noroeste 0 -- -- 69
2020-10-05 13:00:00 13.4 4 Oeste 18 Oeste 0 -- -- 79
2020-10-05 12:00:00 12.1 4 Oeste 14 Sudoeste 0 -- -- 85
2020-10-05 11:00:00 10.3 2 Sur 10 Sudoeste 0.2 -- -- 95
2020-10-05 10:00:00 9.5 0 Calma 3 Sur 0.2 -- -- 97
2020-10-05 09:00:00 8.7 0 Calma 4 Noroeste 0.4 -- -- 97
2020-10-05 08:00:00 8.4 0 Calma 3 Norte 0.2 -- -- 97
2020-10-05 07:00:00 8.1 0 Calma 2 Sur 0.2 -- -- 97
2020-10-05 06:00:00 8.1 0 Calma 4 Sur 0 -- -- 96
2020-10-05 05:00:00 8.2 0 Calma 2 Sur 0 -- -- 95
2020-10-05 04:00:00 8.4 0 Calma 5 Norte 0 -- -- 95
2020-10-05 03:00:00 8.4 0 Calma 4 Norte 0 -- -- 94
2020-10-05 02:00:00 8.5 0 Calma 2 Sudeste 0 -- -- 93
2020-10-05 01:00:00 8.6 0 Calma 4 Norte 0 -- -- 92
2020-10-05 00:00:00 9 0 Calma 5 Oeste 0 -- -- 89
2020-10-04 23:00:00 9.3 0 Calma 7 Norte 0 -- -- 86
2020-10-04 22:00:00 10.3 3 Norte 7 Norte 0 -- -- 82
2020-10-04 21:00:00 10.9 0 Calma 8 Norte 0 -- -- 80
2020-10-04 20:00:00 11.7 2 Norte 11 Oeste 0 -- -- 72
2020-10-04 19:00:00 12.6 6 Noroeste 15 Sudoeste 0 -- -- 67
2020-10-04 18:00:00 13.8 10 Oeste 33 Oeste 0 -- -- 63
2020-10-04 17:00:00 14.8 11 Oeste 29 Noroeste 0 -- -- 62
2020-10-04 16:00:00 15.6 11 Oeste 30 Oeste 0 -- -- 61
2020-10-04 15:00:00 14 6 Noroeste 24 Oeste 0 -- -- 69
2020-10-04 14:00:00 14.1 9 Sudoeste 25 Oeste 0.2 -- -- 74
2020-10-04 13:00:00 12.4 5 Oeste 12 Sudeste 0.4 -- -- 84
2020-10-04 12:00:00 12.9 3 Este 8 Sur 0 -- -- 83
2020-10-04 11:00:00 10.8 3 Sur 12 Sudeste 0 -- -- 97
2020-10-04 10:00:00 9.7 4 Sudeste 7 Sudeste 1 -- -- 99
2020-10-04 09:00:00 8.7 4 Sudeste 10 Este 2 -- -- 99
2020-10-04 08:00:00 7.8 3 Noroeste 10 Este 1 -- -- 99
2020-10-04 07:00:00 6.1 2 Norte 6 Sur 0.2 -- -- 99
2020-10-04 06:00:00 5.3 0 Calma 7 Oeste 0 -- -- 98
2020-10-04 05:00:00 5.3 0 Calma 4 Sudoeste 0 -- -- 98
2020-10-04 04:00:00 5.9 3 Noroeste 6 Nordeste 0 -- -- 98
2020-10-04 03:00:00 6.2 2 Sur 7 Sudeste 0 -- -- 98
2020-10-04 02:00:00 7.1 0 Calma 4 Sur 0 -- -- 97
2020-10-04 01:00:00 7.3 0 Calma 4 Sur 0 -- -- 97
2020-10-04 00:00:00 7.3 0 Calma 2 Norte 0 -- -- 97
2020-10-03 23:00:00 7.8 2 Norte 4 Norte 0 -- -- 96
2020-10-03 22:00:00 8.3 2 Noroeste 4 Norte 0 -- -- 95
2020-10-03 21:00:00 9.5 2 Norte 5 Nordeste 0 -- -- 93
2020-10-03 20:00:00 10.4 3 Norte 6 Noroeste 0.4 -- -- 91
2020-10-03 19:00:00 12.1 2 Norte 10 Norte 0 -- -- 84
2020-10-03 18:00:00 13.2 4 Oeste 17 Oeste 0 -- -- 70
2020-10-03 17:00:00 13.6 11 Oeste 27 Oeste 0 -- -- 67
2020-10-03 16:00:00 13.2 4 Este 13 Sudeste 0 -- -- 80
2020-10-03 15:00:00 10.9 3 Sudeste 9 Norte 0.2 -- -- 91
2020-10-03 14:00:00 9.6 5 Norte 15 Norte 0.4 -- -- 90
2020-10-03 13:00:00 9 4 Noroeste 13 Oeste 0.4 -- -- 93
2020-10-03 12:00:00 7.5 3 Oeste 9 Noroeste 1.6 -- -- 94
2020-10-03 11:00:00 6.6 3 Norte 16 Oeste 5 -- -- 92
2020-10-03 10:00:00 6.5 8 Noroeste 22 Oeste 2.8 -- -- 91
2020-10-03 09:00:00 7.1 9 Noroeste 18 Oeste 1.4 -- -- 91
2020-10-03 08:00:00 7.2 4 Noroeste 18 Oeste 4 -- -- 90
2020-10-03 07:00:00 7.8 3 Norte 18 Noroeste 0.6 -- -- 89
2020-10-03 06:00:00 8 5 Norte 12 Norte 1.2 -- -- 90
2020-10-03 05:00:00 8.5 7 Noroeste 16 Norte 0.2 -- -- 86
2020-10-03 04:00:00 8.3 6 Norte 19 Sudoeste 0.4 -- -- 89
2020-10-03 03:00:00 8.1 6 Oeste 19 Noroeste 0.4 -- -- 89
2020-10-03 02:00:00 7.9 4 Oeste 20 Sudoeste 0.4 -- -- 88
2020-10-03 01:00:00 8 3 Norte 12 Sudoeste 0.2 -- -- 86
2020-10-03 00:00:00 8.3 0 Calma 18 Este 0.8 -- -- 86
2020-10-02 23:00:00 8.8 2 Este 8 Noroeste 0.2 -- -- 81
2020-10-02 22:00:00 8.2 0 Calma 8 Noroeste 0 -- -- 81
2020-10-02 21:00:00 8.2 0 Calma 17 Noroeste 0 -- -- 82
2020-10-02 20:00:00 9.5 6 Norte 36 Oeste 0 -- -- 68
2020-10-02 19:00:00 11.1 7 Oeste 24 Oeste 0 -- -- 65
2020-10-02 18:00:00 11 8 Oeste 33 Oeste 0 -- -- 68
2020-10-02 17:00:00 11.8 13 Noroeste 27 Oeste 0 -- -- 66
2020-10-02 16:00:00 11.9 13 Noroeste 32 Oeste 0 -- -- 64
2020-10-02 15:00:00 12.4 12 Oeste 31 Oeste 0 -- -- 67
2020-10-02 14:00:00 11.2 14 Oeste 29 Oeste 0 -- -- 73
2020-10-02 13:00:00 10.8 7 Noroeste 19 Noroeste 0 -- -- 81
2020-10-02 12:00:00 9.5 2 Noroeste 20 Oeste 0.2 -- -- 86
2020-10-02 11:00:00 8.9 8 Noroeste 26 Noroeste 1 -- -- 84
2020-10-02 10:00:00 9.1 10 Noroeste 33 Noroeste 1.2 -- -- 89
2020-10-02 09:00:00 11.1 10 Noroeste 22 Oeste 1.6 -- -- 85
2020-10-02 08:00:00 11.5 9 Noroeste 19 Noroeste 3.6 -- -- 91
2020-10-02 07:00:00 12.3 6 Noroeste 29 Oeste 6.8 -- -- 91
2020-10-02 06:00:00 12.6 4 Oeste 15 Sudoeste 5 -- -- 93
2020-10-02 05:00:00 13.1 3 Norte 13 Sur 0.6 -- -- 89
2020-10-02 04:00:00 13.2 0 Calma 6 Noroeste 0 -- -- 88
2020-10-02 03:00:00 14.3 4 Este 15 Este 0.2 -- -- 78
2020-10-02 02:00:00 14.5 4 Este 20 Sudeste 0.4 -- -- 80
2020-10-02 01:00:00 16 8 Sudeste 21 Sudeste 0 -- -- 70
2020-10-02 00:00:00 15.4 3 Sur 21 Sudeste 0 -- -- 74
2020-10-01 23:00:00 15.3 5 Sur 21 Sudeste 0 -- -- 76
2020-10-01 22:00:00 13.2 0 Calma 5 Este 0 -- -- 88
2020-10-01 21:00:00 13.2 2 Noroeste 6 Norte 0 -- -- 88
2020-10-01 20:00:00 14.2 2 Noroeste 5 Este 0 -- -- 84
2020-10-01 19:00:00 15.9 3 Norte 15 Norte 0 -- -- 76
2020-10-01 18:00:00 16.6 6 Norte 14 Norte 0 -- -- 73
2020-10-01 17:00:00 17.9 3 Sudoeste 14 Sudoeste 0 -- -- 70
2020-10-01 16:00:00 16.6 5 Noroeste 17 Norte 0.2 -- -- 75
2020-10-01 15:00:00 16.1 4 Noroeste 9 Noroeste 0 -- -- 77
2020-10-01 14:00:00 15.3 3 Norte 14 Norte 0 -- -- 79
2020-10-01 13:00:00 15.4 6 Noroeste 17 Oeste 0 -- -- 79
2020-10-01 12:00:00 15.6 5 Oeste 15 Noroeste 0 -- -- 84
2020-10-01 11:00:00 14.7 9 Noroeste 21 Noroeste 0 -- -- 87
2020-10-01 10:00:00 11.8 2 Oeste 6 Noroeste 0.2 -- -- 95
2020-10-01 09:00:00 11.3 0 Calma 5 Norte 0 -- -- 97
2020-10-01 08:00:00 10.5 0 Calma 2 Norte 0 -- -- 97
2020-10-01 07:00:00 10 0 Calma 4 Norte 0 -- -- 96
2020-10-01 06:00:00 10.3 0 Calma 5 Noroeste 0 -- -- 96
2020-10-01 05:00:00 10.7 0 Calma 4 Noroeste 0 -- -- 96
2020-10-01 04:00:00 10.7 3 Oeste 7 Oeste 0 -- -- 95
2020-10-01 03:00:00 11.4 4 Norte 10 Oeste 0 -- -- 94
2020-10-01 02:00:00 11.1 0 Calma 4 Nordeste 0 -- -- 93
2020-10-01 01:00:00 12.4 0 Calma 12 Este 0 -- -- 91
2020-10-01 00:00:00 13.4 3 Nordeste 7 Nordeste 0 -- -- 89